sensor_id;sensor_type;location;lat;lon;timestamp;temperature;humidity
11736;DHT22;5924;51.398;7.088;2023-04-23T03:44:17;8.40;99.90
11736;DHT22;5924;51.398;7.088;2023-04-23T04:49:55;8.60;99.90
11736;DHT22;5924;51.398;7.088;2023-04-23T04:52:29;8.60;99.90
11736;DHT22;5924;51.398;7.088;2023-04-23T04:54:55;8.60;99.90
11736;DHT22;5924;51.398;7.088;2023-04-23T04:57:23;8.70;99.90
11736;DHT22;5924;51.398;7.088;2023-04-23T04:59:54;9.20;99.90
11736;DHT22;5924;51.398;7.088;2023-04-23T05:02:30;8.80;99.90
11736;DHT22;5924;51.398;7.088;2023-04-23T05:05:01;8.80;99.90
11736;DHT22;5924;51.398;7.088;2023-04-23T05:07:30;8.90;99.90
11736;DHT22;5924;51.398;7.088;2023-04-23T05:09:56;9.00;99.90
11736;DHT22;5924;51.398;7.088;2023-04-23T05:12:35;9.10;99.90
11736;DHT22;5924;51.398;7.088;2023-04-23T05:15:02;11.20;99.90
11736;DHT22;5924;51.398;7.088;2023-04-23T05:17:43;9.40;99.90
11736;DHT22;5924;51.398;7.088;2023-04-23T05:20:12;9.50;99.90
11736;DHT22;5924;51.398;7.088;2023-04-23T05:22:45;9.60;99.90
11736;DHT22;5924;51.398;7.088;2023-04-23T05:25:13;9.70;99.90
11736;DHT22;5924;51.398;7.088;2023-04-23T05:27:39;9.80;99.90
11736;DHT22;5924;51.398;7.088;2023-04-23T05:30:21;9.90;99.90
11736;DHT22;5924;51.398;7.088;2023-04-23T05:32:48;10.00;99.90
11736;DHT22;5924;51.398;7.088;2023-04-23T05:35:20;10.10;99.90
11736;DHT22;5924;51.398;7.088;2023-04-23T05:37:48;10.10;99.90
11736;DHT22;5924;51.398;7.088;2023-04-23T05:40:28;10.20;99.90
11736;DHT22;5924;51.398;7.088;2023-04-23T05:42:56;10.30;99.90
11736;DHT22;5924;51.398;7.088;2023-04-23T05:45:27;10.40;99.90
11736;DHT22;5924;51.398;7.088;2023-04-23T05:47:59;10.50;99.90
11736;DHT22;5924;51.398;7.088;2023-04-23T05:50:32;10.60;99.90
11736;DHT22;5924;51.398;7.088;2023-04-23T05:53:17;10.70;99.90
11736;DHT22;5924;51.398;7.088;2023-04-23T05:55:45;10.80;99.90
11736;DHT22;5924;51.398;7.088;2023-04-23T05:58:29;10.80;99.90
11736;DHT22;5924;51.398;7.088;2023-04-23T06:01:05;10.90;99.90
11736;DHT22;5924;51.398;7.088;2023-04-23T06:03:33;11.00;99.90
11736;DHT22;5924;51.398;7.088;2023-04-23T06:06:02;11.00;99.90
11736;DHT22;5924;51.398;7.088;2023-04-23T06:08:33;11.10;99.90
11736;DHT22;5924;51.398;7.088;2023-04-23T06:11:07;11.10;99.90
11736;DHT22;5924;51.398;7.088;2023-04-23T06:13:41;11.20;99.90
11736;DHT22;5924;51.398;7.088;2023-04-23T06:16:15;11.20;99.90
11736;DHT22;5924;51.398;7.088;2023-04-23T06:19:03;11.30;99.90
11736;DHT22;5924;51.398;7.088;2023-04-23T06:21:40;11.30;99.90
11736;DHT22;5924;51.398;7.088;2023-04-23T06:24:08;11.40;99.90
11736;DHT22;5924;51.398;7.088;2023-04-23T06:26:39;11.50;99.90
11736;DHT22;5924;51.398;7.088;2023-04-23T06:29:10;11.60;99.90
11736;DHT22;5924;51.398;7.088;2023-04-23T06:31:38;11.70;99.90
11736;DHT22;5924;51.398;7.088;2023-04-23T06:34:16;11.80;99.90
11736;DHT22;5924;51.398;7.088;2023-04-23T06:36:44;11.90;99.90
11736;DHT22;5924;51.398;7.088;2023-04-23T06:39:20;12.00;99.90
11736;DHT22;5924;51.398;7.088;2023-04-23T06:41:57;12.10;99.90
11736;DHT22;5924;51.398;7.088;2023-04-23T06:44:30;12.20;99.90
11736;DHT22;5924;51.398;7.088;2023-04-23T06:46:58;12.20;99.90
11736;DHT22;5924;51.398;7.088;2023-04-23T06:49:37;12.30;99.90
11736;DHT22;5924;51.398;7.088;2023-04-23T06:52:13;12.30;99.90
11736;DHT22;5924;51.398;7.088;2023-04-23T06:54:57;12.40;99.90
11736;DHT22;5924;51.398;7.088;2023-04-23T06:57:33;11.70;99.90
11736;DHT22;5924;51.398;7.088;2023-04-23T07:00:06;12.50;99.90
11736;DHT22;5924;51.398;7.088;2023-04-23T07:02:36;12.60;99.90
11736;DHT22;5924;51.398;7.088;2023-04-23T07:05:07;12.70;99.90
11736;DHT22;5924;51.398;7.088;2023-04-23T07:07:58;12.80;99.90
11736;DHT22;5924;51.398;7.088;2023-04-23T07:10:31;12.90;99.90
11736;DHT22;5924;51.398;7.088;2023-04-23T07:12:59;13.00;99.90
11736;DHT22;5924;51.398;7.088;2023-04-23T07:15:26;13.10;99.90
11736;DHT22;5924;51.398;7.088;2023-04-23T07:17:54;13.10;99.90
11736;DHT22;5924;51.398;7.088;2023-04-23T07:20:22;13.10;99.90
11736;DHT22;5924;51.398;7.088;2023-04-23T07:22:59;13.00;99.90
11736;DHT22;5924;51.398;7.088;2023-04-23T07:25:34;12.90;99.90
11736;DHT22;5924;51.398;7.088;2023-04-23T07:28:11;12.90;99.90
11736;DHT22;5924;51.398;7.088;2023-04-23T07:30:42;12.90;99.90
11736;DHT22;5924;51.398;7.088;2023-04-23T07:33:13;12.90;99.90
11736;DHT22;5924;51.398;7.088;2023-04-23T07:35:39;12.90;99.90
11736;DHT22;5924;51.398;7.088;2023-04-23T07:38:10;13.00;99.90
11736;DHT22;5924;51.398;7.088;2023-04-23T07:40:46;13.00;99.90
11736;DHT22;5924;51.398;7.088;2023-04-23T07:43:15;13.00;99.90
11736;DHT22;5924;51.398;7.088;2023-04-23T07:45:41;13.10;99.90
11736;DHT22;5924;51.398;7.088;2023-04-23T07:48:09;13.20;99.90
11736;DHT22;5924;51.398;7.088;2023-04-23T07:50:41;13.30;99.90
11736;DHT22;5924;51.398;7.088;2023-04-23T07:53:11;13.40;99.90
11736;DHT22;5924;51.398;7.088;2023-04-23T07:55:40;13.50;99.90
11736;DHT22;5924;51.398;7.088;2023-04-23T07:58:08;13.50;99.90
11736;DHT22;5924;51.398;7.088;2023-04-23T08:00:37;13.60;99.90
11736;DHT22;5924;51.398;7.088;2023-04-23T08:03:05;13.70;99.90
11736;DHT22;5924;51.398;7.088;2023-04-23T08:05:31;13.80;99.90
11736;DHT22;5924;51.398;7.088;2023-04-23T08:10:41;14.10;99.90
11736;DHT22;5924;51.398;7.088;2023-04-23T08:13:13;14.20;99.90
11736;DHT22;5924;51.398;7.088;2023-04-23T08:15:41;14.30;99.90
11736;DHT22;5924;51.398;7.088;2023-04-23T08:18:09;14.40;99.90
11736;DHT22;5924;51.398;7.088;2023-04-23T08:20:39;14.50;99.90
11736;DHT22;5924;51.398;7.088;2023-04-23T08:23:11;14.60;99.90
11736;DHT22;5924;51.398;7.088;2023-04-23T08:25:43;14.60;99.90
11736;DHT22;5924;51.398;7.088;2023-04-23T08:28:11;14.70;99.90
11736;DHT22;5924;51.398;7.088;2023-04-23T08:30:40;14.70;99.90
11736;DHT22;5924;51.398;7.088;2023-04-23T08:33:13;14.80;99.90
11736;DHT22;5924;51.398;7.088;2023-04-23T08:35:39;14.90;99.90
11736;DHT22;5924;51.398;7.088;2023-04-23T08:38:11;15.00;99.90
11736;DHT22;5924;51.398;7.088;2023-04-23T08:40:37;15.10;99.90
11736;DHT22;5924;51.398;7.088;2023-04-23T08:43:15;15.20;99.90
11736;DHT22;5924;51.398;7.088;2023-04-23T08:45:48;15.20;99.90
11736;DHT22;5924;51.398;7.088;2023-04-23T08:48:24;15.30;99.90
11736;DHT22;5924;51.398;7.088;2023-04-23T08:50:53;15.40;99.90
11736;DHT22;5924;51.398;7.088;2023-04-23T08:53:40;15.40;99.90
11736;DHT22;5924;51.398;7.088;2023-04-23T08:59:00;15.80;99.90
11736;DHT22;5924;51.398;7.088;2023-04-23T09:01:31;16.00;99.90
11736;DHT22;5924;51.398;7.088;2023-04-23T09:04:10;16.00;99.90
11736;DHT22;5924;51.398;7.088;2023-04-23T09:06:45;16.00;99.90
11736;DHT22;5924;51.398;7.088;2023-04-23T09:09:17;15.90;99.90
11736;DHT22;5924;51.398;7.088;2023-04-23T09:11:56;15.90;99.90
11736;DHT22;5924;51.398;7.088;2023-04-23T09:14:49;16.20;99.90
11736;DHT22;5924;51.398;7.088;2023-04-23T09:17:27;16.40;99.90
11736;DHT22;5924;51.398;7.088;2023-04-23T09:20:11;16.60;99.90
11736;DHT22;5924;51.398;7.088;2023-04-23T09:22:53;16.80;99.90
11736;DHT22;5924;51.398;7.088;2023-04-23T09:25:23;16.80;99.90
11736;DHT22;5924;51.398;7.088;2023-04-23T09:27:57;16.80;99.90
11736;DHT22;5924;51.398;7.088;2023-04-23T09:30:45;14.80;99.90
11736;DHT22;5924;51.398;7.088;2023-04-23T09:33:21;17.10;99.90
11736;DHT22;5924;51.398;7.088;2023-04-23T09:35:58;17.20;99.90
11736;DHT22;5924;51.398;7.088;2023-04-23T09:38:31;17.60;99.90
11736;DHT22;5924;51.398;7.088;2023-04-23T09:41:27;18.10;99.90
11736;DHT22;5924;51.398;7.088;2023-04-23T09:44:04;17.70;99.90
11736;DHT22;5924;51.398;7.088;2023-04-23T09:46:50;17.60;99.90
11736;DHT22;5924;51.398;7.088;2023-04-23T09:49:36;17.60;99.90
11736;DHT22;5924;51.398;7.088;2023-04-23T09:52:22;17.50;99.90
11736;DHT22;5924;51.398;7.088;2023-04-23T09:54:50;17.60;99.90
11736;DHT22;5924;51.398;7.088;2023-04-23T09:57:22;17.80;99.90
11736;DHT22;5924;51.398;7.088;2023-04-23T09:59:53;17.70;99.90
11736;DHT22;5924;51.398;7.088;2023-04-23T10:02:37;17.50;99.90
11736;DHT22;5924;51.398;7.088;2023-04-23T10:05:21;17.20;99.90
11736;DHT22;5924;51.398;7.088;2023-04-23T10:07:50;16.90;99.90
11736;DHT22;5924;51.398;7.088;2023-04-23T10:10:22;16.80;99.90
11736;DHT22;5924;51.398;7.088;2023-04-23T10:12:55;16.80;99.90
11736;DHT22;5924;51.398;7.088;2023-04-23T10:15:25;16.70;99.90
11736;DHT22;5924;51.398;7.088;2023-04-23T10:18:05;16.80;99.90
11736;DHT22;5924;51.398;7.088;2023-04-23T10:20:35;17.00;99.90
11736;DHT22;5924;51.398;7.088;2023-04-23T10:23:05;17.20;99.90
11736;DHT22;5924;51.398;7.088;2023-04-23T10:26:00;17.40;99.90
11736;DHT22;5924;51.398;7.088;2023-04-23T10:28:37;17.60;99.90
11736;DHT22;5924;51.398;7.088;2023-04-23T10:31:11;17.70;99.90
11736;DHT22;5924;51.398;7.088;2023-04-23T10:33:41;17.90;99.90
11736;DHT22;5924;51.398;7.088;2023-04-23T10:36:13;18.30;99.90
11736;DHT22;5924;51.398;7.088;2023-04-23T10:38:43;18.60;99.90
11736;DHT22;5924;51.398;7.088;2023-04-23T10:41:17;18.70;99.90
11736;DHT22;5924;51.398;7.088;2023-04-23T10:44:11;18.90;99.90
11736;DHT22;5924;51.398;7.088;2023-04-23T10:46:46;19.00;99.90
11736;DHT22;5924;51.398;7.088;2023-04-23T10:49:14;18.70;99.90
11736;DHT22;5924;51.398;7.088;2023-04-23T10:55:02;18.50;99.90
11736;DHT22;5924;51.398;7.088;2023-04-23T10:57:28;18.60;99.90
11736;DHT22;5924;51.398;7.088;2023-04-23T10:59:55;18.70;99.90
11736;DHT22;5924;51.398;7.088;2023-04-23T11:02:24;18.70;99.90
11736;DHT22;5924;51.398;7.088;2023-04-23T11:04:55;18.80;99.90
11736;DHT22;5924;51.398;7.088;2023-04-23T11:07:29;18.70;99.90
11736;DHT22;5924;51.398;7.088;2023-04-23T11:09:58;18.50;99.90
11736;DHT22;5924;51.398;7.088;2023-04-23T11:14:54;17.80;99.90
11736;DHT22;5924;51.398;7.088;2023-04-23T11:20:13;17.70;99.90
11736;DHT22;5924;51.398;7.088;2023-04-23T11:22:44;17.70;99.90
11736;DHT22;5924;51.398;7.088;2023-04-23T11:25:12;17.50;99.90
11736;DHT22;5924;51.398;7.088;2023-04-23T11:27:40;17.40;99.90
11736;DHT22;5924;51.398;7.088;2023-04-23T11:30:16;17.30;99.90
11736;DHT22;5924;51.398;7.088;2023-04-23T11:32:46;17.20;99.90
11736;DHT22;5924;51.398;7.088;2023-04-23T11:35:14;17.20;99.90
11736;DHT22;5924;51.398;7.088;2023-04-23T11:37:41;17.30;99.90
11736;DHT22;5924;51.398;7.088;2023-04-23T11:40:09;17.30;99.90
11736;DHT22;5924;51.398;7.088;2023-04-23T11:45:18;17.80;99.90
11736;DHT22;5924;51.398;7.088;2023-04-23T11:47:45;17.90;99.90
11736;DHT22;5924;51.398;7.088;2023-04-23T11:50:37;17.80;99.90
11736;DHT22;5924;51.398;7.088;2023-04-23T11:53:08;17.50;99.90
11736;DHT22;5924;51.398;7.088;2023-04-23T11:55:35;17.10;99.90
11736;DHT22;5924;51.398;7.088;2023-04-23T11:58:01;16.70;99.90
11736;DHT22;5924;51.398;7.088;2023-04-23T12:00:27;16.60;99.90
11736;DHT22;5924;51.398;7.088;2023-04-23T12:02:54;16.60;99.90
11736;DHT22;5924;51.398;7.088;2023-04-23T12:05:30;16.70;99.90
11736;DHT22;5924;51.398;7.088;2023-04-23T12:08:17;17.10;99.90
11736;DHT22;5924;51.398;7.088;2023-04-23T12:10:51;17.70;99.90
11736;DHT22;5924;51.398;7.088;2023-04-23T12:13:20;18.40;99.90
11736;DHT22;5924;51.398;7.088;2023-04-23T12:16:00;19.10;99.90
11736;DHT22;5924;51.398;7.088;2023-04-23T12:18:34;20.70;99.90
11736;DHT22;5924;51.398;7.088;2023-04-23T12:21:07;20.40;99.90
11736;DHT22;5924;51.398;7.088;2023-04-23T12:23:34;22.30;99.90
11736;DHT22;5924;51.398;7.088;2023-04-23T12:26:01;23.20;99.90
11736;DHT22;5924;51.398;7.088;2023-04-23T12:28:28;23.70;99.90
11736;DHT22;5924;51.398;7.088;2023-04-23T12:30:59;22.90;99.90
11736;DHT22;5924;51.398;7.088;2023-04-23T12:33:29;23.90;99.90
11736;DHT22;5924;51.398;7.088;2023-04-23T12:35:55;23.90;99.90
11736;DHT22;5924;51.398;7.088;2023-04-23T12:40:52;22.90;99.90
11736;DHT22;5924;51.398;7.088;2023-04-23T12:43:18;22.60;99.90
11736;DHT22;5924;51.398;7.088;2023-04-23T12:45:43;22.30;99.50
11736;DHT22;5924;51.398;7.088;2023-04-23T12:48:10;22.30;99.80
11736;DHT22;5924;51.398;7.088;2023-04-23T12:50:36;22.90;99.90
11736;DHT22;5924;51.398;7.088;2023-04-23T12:53:02;24.00;99.90
11736;DHT22;5924;51.398;7.088;2023-04-23T12:55:28;25.30;96.80
11736;DHT22;5924;51.398;7.088;2023-04-23T12:57:54;26.00;93.80
11736;DHT22;5924;51.398;7.088;2023-04-23T13:00:19;26.50;89.20
11736;DHT22;5924;51.398;7.088;2023-04-23T13:02:45;26.90;86.40
11736;DHT22;5924;51.398;7.088;2023-04-23T13:05:11;27.40;78.80
11736;DHT22;5924;51.398;7.088;2023-04-23T13:07:36;27.30;71.70
11736;DHT22;5924;51.398;7.088;2023-04-23T13:10:02;27.00;71.90
11736;DHT22;5924;51.398;7.088;2023-04-23T13:12:28;27.30;72.90
11736;DHT22;5924;51.398;7.088;2023-04-23T13:14:54;27.30;67.20
11736;DHT22;5924;51.398;7.088;2023-04-23T13:17:19;26.80;66.80
11736;DHT22;5924;51.398;7.088;2023-04-23T13:19:45;26.10;68.90
11736;DHT22;5924;51.398;7.088;2023-04-23T13:22:11;25.20;70.40
11736;DHT22;5924;51.398;7.088;2023-04-23T13:24:36;24.50;74.10
11736;DHT22;5924;51.398;7.088;2023-04-23T13:27:02;23.60;74.20
11736;DHT22;5924;51.398;7.088;2023-04-23T13:29:28;22.40;76.80
11736;DHT22;5924;51.398;7.088;2023-04-23T13:31:54;22.00;83.00
11736;DHT22;5924;51.398;7.088;2023-04-23T13:34:20;22.90;84.70
11736;DHT22;5924;51.398;7.088;2023-04-23T13:36:46;24.70;79.20
11736;DHT22;5924;51.398;7.088;2023-04-23T13:39:12;26.40;79.30
11736;DHT22;5924;51.398;7.088;2023-04-23T13:41:39;27.20;75.00
11736;DHT22;5924;51.398;7.088;2023-04-23T13:44:05;27.40;73.10
11736;DHT22;5924;51.398;7.088;2023-04-23T13:46:30;26.70;69.80
11736;DHT22;5924;51.398;7.088;2023-04-23T13:48:56;25.80;71.50
11736;DHT22;5924;51.398;7.088;2023-04-23T13:51:22;25.40;69.30
11736;DHT22;5924;51.398;7.088;2023-04-23T13:53:48;24.60;73.80
11736;DHT22;5924;51.398;7.088;2023-04-23T13:56:13;24.70;73.30
11736;DHT22;5924;51.398;7.088;2023-04-23T13:58:39;24.60;72.00
11736;DHT22;5924;51.398;7.088;2023-04-23T14:01:07;24.20;70.60
11736;DHT22;5924;51.398;7.088;2023-04-23T14:03:36;23.80;71.40
11736;DHT22;5924;51.398;7.088;2023-04-23T14:06:01;23.50;72.40
11736;DHT22;5924;51.398;7.088;2023-04-23T14:08:27;21.50;71.80
11736;DHT22;5924;51.398;7.088;2023-04-23T14:10:53;22.00;74.30
11736;DHT22;5924;51.398;7.088;2023-04-23T14:13:18;21.40;75.20
11736;DHT22;5924;51.398;7.088;2023-04-23T14:15:44;20.90;76.20
11736;DHT22;5924;51.398;7.088;2023-04-23T14:18:10;20.80;79.20
11736;DHT22;5924;51.398;7.088;2023-04-23T14:20:35;21.10;78.10
11736;DHT22;5924;51.398;7.088;2023-04-23T14:26:02;21.60;76.40
11736;DHT22;5924;51.398;7.088;2023-04-23T14:28:40;21.50;76.10
11736;DHT22;5924;51.398;7.088;2023-04-23T14:31:09;21.40;77.30
11736;DHT22;5924;51.398;7.088;2023-04-23T14:33:34;21.10;75.90
11736;DHT22;5924;51.398;7.088;2023-04-23T14:36:00;20.80;75.90
11736;DHT22;5924;51.398;7.088;2023-04-23T14:38:26;20.60;78.80
11736;DHT22;5924;51.398;7.088;2023-04-23T14:40:51;20.30;80.80
11736;DHT22;5924;51.398;7.088;2023-04-23T14:43:17;20.20;81.70
11736;DHT22;5924;51.398;7.088;2023-04-23T14:45:43;19.00;80.50
11736;DHT22;5924;51.398;7.088;2023-04-23T14:48:09;19.90;82.10
11736;DHT22;5924;51.398;7.088;2023-04-23T14:50:35;19.70;83.00
11736;DHT22;5924;51.398;7.088;2023-04-23T14:53:00;19.50;83.20
11736;DHT22;5924;51.398;7.088;2023-04-23T14:55:28;19.30;83.80
11736;DHT22;5924;51.398;7.088;2023-04-23T14:57:55;19.00;82.50
11736;DHT22;5924;51.398;7.088;2023-04-23T15:00:21;17.40;81.80
11736;DHT22;5924;51.398;7.088;2023-04-23T15:02:46;18.50;82.60
11736;DHT22;5924;51.398;7.088;2023-04-23T15:05:12;18.50;84.90
11736;DHT22;5924;51.398;7.088;2023-04-23T15:07:40;18.50;85.20
11736;DHT22;5924;51.398;7.088;2023-04-23T15:10:07;18.60;84.60
11736;DHT22;5924;51.398;7.088;2023-04-23T15:12:53;18.60;85.40
11736;DHT22;5924;51.398;7.088;2023-04-23T15:15:50;18.60;84.50
11736;DHT22;5924;51.398;7.088;2023-04-23T15:18:19;18.50;82.80
11736;DHT22;5924;51.398;7.088;2023-04-23T15:20:45;18.40;83.60
11736;DHT22;5924;51.398;7.088;2023-04-23T15:23:11;18.30;84.00
11736;DHT22;5924;51.398;7.088;2023-04-23T15:25:36;18.20;86.90
11736;DHT22;5924;51.398;7.088;2023-04-23T15:28:03;18.00;90.00
11736;DHT22;5924;51.398;7.088;2023-04-23T15:30:30;17.80;90.80
11736;DHT22;5924;51.398;7.088;2023-04-23T15:32:56;20.00;92.30
11736;DHT22;5924;51.398;7.088;2023-04-23T15:35:26;17.40;92.50
11736;DHT22;5924;51.398;7.088;2023-04-23T15:37:52;17.30;92.90
11736;DHT22;5924;51.398;7.088;2023-04-23T15:40:18;17.20;93.20
11736;DHT22;5924;51.398;7.088;2023-04-23T15:42:44;17.10;94.00
11736;DHT22;5924;51.398;7.088;2023-04-23T15:45:11;17.00;94.90
11736;DHT22;5924;51.398;7.088;2023-04-23T15:47:37;16.80;94.90
11736;DHT22;5924;51.398;7.088;2023-04-23T15:50:07;16.60;96.10
11736;DHT22;5924;51.398;7.088;2023-04-23T15:52:33;16.10;97.70
11736;DHT22;5924;51.398;7.088;2023-04-23T15:54:59;15.70;99.70
11736;DHT22;5924;51.398;7.088;2023-04-23T15:57:25;15.40;99.90
11736;DHT22;5924;51.398;7.088;2023-04-23T15:59:51;15.20;99.90
11736;DHT22;5924;51.398;7.088;2023-04-23T16:02:17;15.00;99.90
11736;DHT22;5924;51.398;7.088;2023-04-23T16:04:43;14.90;99.90
11736;DHT22;5924;51.398;7.088;2023-04-23T16:07:10;15.00;99.90
11736;DHT22;5924;51.398;7.088;2023-04-23T16:09:35;15.00;99.90
11736;DHT22;5924;51.398;7.088;2023-04-23T16:12:01;15.00;99.90
11736;DHT22;5924;51.398;7.088;2023-04-23T16:14:27;15.00;99.90
11736;DHT22;5924;51.398;7.088;2023-04-23T16:16:53;14.90;99.90
11736;DHT22;5924;51.398;7.088;2023-04-23T16:19:18;14.80;99.90
11736;DHT22;5924;51.398;7.088;2023-04-23T16:21:44;14.80;99.90
11736;DHT22;5924;51.398;7.088;2023-04-23T16:24:09;14.70;99.90
11736;DHT22;5924;51.398;7.088;2023-04-23T16:26:36;14.60;99.90
11736;DHT22;5924;51.398;7.088;2023-04-23T16:29:03;14.40;99.90
11736;DHT22;5924;51.398;7.088;2023-04-23T16:31:29;14.20;99.90
11736;DHT22;5924;51.398;7.088;2023-04-23T16:33:54;15.50;99.90
11736;DHT22;5924;51.398;7.088;2023-04-23T16:36:21;13.60;99.90
11736;DHT22;5924;51.398;7.088;2023-04-23T16:38:46;13.50;99.90
11736;DHT22;5924;51.398;7.088;2023-04-23T16:41:13;13.30;99.90
11736;DHT22;5924;51.398;7.088;2023-04-23T16:43:44;13.10;99.90
11736;DHT22;5924;51.398;7.088;2023-04-23T16:46:12;12.90;99.90
11736;DHT22;5924;51.398;7.088;2023-04-23T16:48:40;12.80;99.90
11736;DHT22;5924;51.398;7.088;2023-04-23T16:51:06;12.70;99.90
11736;DHT22;5924;51.398;7.088;2023-04-23T16:53:32;12.70;99.90
11736;DHT22;5924;51.398;7.088;2023-04-23T16:55:57;12.70;99.90
11736;DHT22;5924;51.398;7.088;2023-04-23T16:58:23;12.70;99.90
11736;DHT22;5924;51.398;7.088;2023-04-23T17:00:48;12.70;99.90
11736;DHT22;5924;51.398;7.088;2023-04-23T17:03:14;12.70;99.90
11736;DHT22;5924;51.398;7.088;2023-04-23T17:05:41;12.60;99.90
11736;DHT22;5924;51.398;7.088;2023-04-23T17:08:07;12.60;99.90
11736;DHT22;5924;51.398;7.088;2023-04-23T17:10:32;12.60;99.90
11736;DHT22;5924;51.398;7.088;2023-04-23T17:12:58;12.60;99.90
11736;DHT22;5924;51.398;7.088;2023-04-23T17:15:24;12.50;99.90
11736;DHT22;5924;51.398;7.088;2023-04-23T17:17:50;12.40;99.90
11736;DHT22;5924;51.398;7.088;2023-04-23T17:20:17;12.40;99.90
11736;DHT22;5924;51.398;7.088;2023-04-23T17:22:42;12.40;99.90
11736;DHT22;5924;51.398;7.088;2023-04-23T17:25:08;12.30;99.90
11736;DHT22;5924;51.398;7.088;2023-04-23T17:27:34;12.30;99.90
11736;DHT22;5924;51.398;7.088;2023-04-23T17:30:00;12.30;99.90
11736;DHT22;5924;51.398;7.088;2023-04-23T17:32:25;12.30;99.90
11736;DHT22;5924;51.398;7.088;2023-04-23T17:34:52;12.20;99.90
11736;DHT22;5924;51.398;7.088;2023-04-23T17:37:18;12.20;99.90
11736;DHT22;5924;51.398;7.088;2023-04-23T17:39:44;12.10;99.90
11736;DHT22;5924;51.398;7.088;2023-04-23T17:42:09;11.90;99.90
11736;DHT22;5924;51.398;7.088;2023-04-23T17:44:37;11.80;99.90
11736;DHT22;5924;51.398;7.088;2023-04-23T17:47:03;11.80;99.90
11736;DHT22;5924;51.398;7.088;2023-04-23T17:49:29;11.80;99.90
11736;DHT22;5924;51.398;7.088;2023-04-23T17:51:55;11.80;99.90
11736;DHT22;5924;51.398;7.088;2023-04-23T17:54:20;11.80;99.90
11736;DHT22;5924;51.398;7.088;2023-04-23T17:56:46;11.70;99.90
11736;DHT22;5924;51.398;7.088;2023-04-23T17:59:12;10.00;99.90
11736;DHT22;5924;51.398;7.088;2023-04-23T18:01:37;11.70;99.90
11736;DHT22;5924;51.398;7.088;2023-04-23T18:04:03;11.70;99.90
11736;DHT22;5924;51.398;7.088;2023-04-23T18:06:29;11.70;99.90
11736;DHT22;5924;51.398;7.088;2023-04-23T18:08:55;11.60;99.90
11736;DHT22;5924;51.398;7.088;2023-04-23T18:11:20;11.60;99.90
11736;DHT22;5924;51.398;7.088;2023-04-23T18:13:46;11.60;99.90
11736;DHT22;5924;51.398;7.088;2023-04-23T18:16:14;11.50;99.90
11736;DHT22;5924;51.398;7.088;2023-04-23T18:18:40;11.50;99.90
11736;DHT22;5924;51.398;7.088;2023-04-23T18:21:06;11.50;99.90
11736;DHT22;5924;51.398;7.088;2023-04-23T18:23:32;11.40;99.90
11736;DHT22;5924;51.398;7.088;2023-04-23T18:26:00;11.40;99.90
11736;DHT22;5924;51.398;7.088;2023-04-23T18:28:26;12.20;99.90
11736;DHT22;5924;51.398;7.088;2023-04-23T18:30:52;11.40;99.90
11736;DHT22;5924;51.398;7.088;2023-04-23T18:35:56;11.30;99.90
11736;DHT22;5924;51.398;7.088;2023-04-23T18:38:42;11.30;99.90
11736;DHT22;5924;51.398;7.088;2023-04-23T18:41:09;11.30;99.90
11736;DHT22;5924;51.398;7.088;2023-04-23T18:43:34;11.20;99.90
11736;DHT22;5924;51.398;7.088;2023-04-23T18:46:00;11.30;99.90
11736;DHT22;5924;51.398;7.088;2023-04-23T18:51:04;11.50;99.90
11736;DHT22;5924;51.398;7.088;2023-04-23T18:53:30;11.40;99.90
11736;DHT22;5924;51.398;7.088;2023-04-23T18:55:56;11.40;99.90
11736;DHT22;5924;51.398;7.088;2023-04-23T18:58:21;11.40;99.90
11736;DHT22;5924;51.398;7.088;2023-04-23T19:00:47;11.40;99.90
11736;DHT22;5924;51.398;7.088;2023-04-23T19:03:13;11.50;99.90
11736;DHT22;5924;51.398;7.088;2023-04-23T19:05:39;11.50;99.90
11736;DHT22;5924;51.398;7.088;2023-04-23T19:08:05;11.50;99.90
11736;DHT22;5924;51.398;7.088;2023-04-23T19:10:31;11.50;99.90
11736;DHT22;5924;51.398;7.088;2023-04-23T19:12:57;11.50;99.90
11736;DHT22;5924;51.398;7.088;2023-04-23T19:15:23;11.50;99.90
11736;DHT22;5924;51.398;7.088;2023-04-23T19:17:48;11.50;99.90
11736;DHT22;5924;51.398;7.088;2023-04-23T19:20:14;11.50;99.90
11736;DHT22;5924;51.398;7.088;2023-04-23T19:22:41;11.40;99.90
11736;DHT22;5924;51.398;7.088;2023-04-23T19:25:07;11.40;99.90
11736;DHT22;5924;51.398;7.088;2023-04-23T19:27:34;11.50;99.90
11736;DHT22;5924;51.398;7.088;2023-04-23T19:30:01;12.60;99.90
11736;DHT22;5924;51.398;7.088;2023-04-23T19:32:30;11.50;99.90
11736;DHT22;5924;51.398;7.088;2023-04-23T19:34:58;11.50;99.90
11736;DHT22;5924;51.398;7.088;2023-04-23T19:37:24;11.60;99.90
11736;DHT22;5924;51.398;7.088;2023-04-23T19:39:50;11.60;99.90
11736;DHT22;5924;51.398;7.088;2023-04-23T19:42:17;11.50;99.90
11736;DHT22;5924;51.398;7.088;2023-04-23T19:44:43;11.50;99.90
11736;DHT22;5924;51.398;7.088;2023-04-23T19:47:09;11.40;99.90
11736;DHT22;5924;51.398;7.088;2023-04-23T19:49:34;11.40;99.90
11736;DHT22;5924;51.398;7.088;2023-04-23T19:52:01;11.40;99.90
11736;DHT22;5924;51.398;7.088;2023-04-23T19:54:28;11.30;99.90
11736;DHT22;5924;51.398;7.088;2023-04-23T19:56:53;11.30;99.90
11736;DHT22;5924;51.398;7.088;2023-04-23T19:59:19;11.20;99.90
11736;DHT22;5924;51.398;7.088;2023-04-23T20:01:46;11.20;99.90
11736;DHT22;5924;51.398;7.088;2023-04-23T20:04:12;11.10;99.90
11736;DHT22;5924;51.398;7.088;2023-04-23T20:06:38;11.10;99.90
11736;DHT22;5924;51.398;7.088;2023-04-23T20:09:03;11.20;99.90
11736;DHT22;5924;51.398;7.088;2023-04-23T20:11:33;12.40;99.90
11736;DHT22;5924;51.398;7.088;2023-04-23T20:14:00;11.20;99.90
11736;DHT22;5924;51.398;7.088;2023-04-23T20:16:26;11.30;99.90
11736;DHT22;5924;51.398;7.088;2023-04-23T20:18:55;11.30;99.90
11736;DHT22;5924;51.398;7.088;2023-04-23T20:21:21;11.20;99.90
11736;DHT22;5924;51.398;7.088;2023-04-23T20:23:47;11.10;99.90
11736;DHT22;5924;51.398;7.088;2023-04-23T20:26:15;11.00;99.90
11736;DHT22;5924;51.398;7.088;2023-04-23T20:28:41;10.90;99.90
11736;DHT22;5924;51.398;7.088;2023-04-23T20:31:07;10.80;99.90
11736;DHT22;5924;51.398;7.088;2023-04-23T20:33:32;10.70;99.90
11736;DHT22;5924;51.398;7.088;2023-04-23T20:35:58;10.70;99.90
11736;DHT22;5924;51.398;7.088;2023-04-23T20:38:26;10.70;99.90
11736;DHT22;5924;51.398;7.088;2023-04-23T20:40:55;10.70;99.90
11736;DHT22;5924;51.398;7.088;2023-04-23T20:43:27;10.70;99.90
11736;DHT22;5924;51.398;7.088;2023-04-23T20:45:54;10.70;99.90
11736;DHT22;5924;51.398;7.088;2023-04-23T20:48:20;10.70;99.90
11736;DHT22;5924;51.398;7.088;2023-04-23T20:50:45;10.70;99.90
11736;DHT22;5924;51.398;7.088;2023-04-23T20:53:11;10.80;99.90
11736;DHT22;5924;51.398;7.088;2023-04-23T20:55:37;10.80;99.90
11736;DHT22;5924;51.398;7.088;2023-04-23T20:58:02;10.80;99.90
11736;DHT22;5924;51.398;7.088;2023-04-23T21:00:28;10.90;99.90
11736;DHT22;5924;51.398;7.088;2023-04-23T21:02:54;10.90;99.90
11736;DHT22;5924;51.398;7.088;2023-04-23T21:05:19;10.90;99.90
11736;DHT22;5924;51.398;7.088;2023-04-23T21:07:45;10.90;99.90
11736;DHT22;5924;51.398;7.088;2023-04-23T21:10:11;10.90;99.90
11736;DHT22;5924;51.398;7.088;2023-04-23T21:12:37;10.90;99.90
11736;DHT22;5924;51.398;7.088;2023-04-23T21:15:03;10.90;99.90